Time;durP1;ratioP1;P1;durP2;ratioP2;P2;SDS_P1;SDS_P2;PMS_P1;PMS_P2;Temp;Humidity;BMP_temperature;BMP_pressure;BME280_temperature;BME280_humidity;BME280_pressure;Samples;Min_cycle;Max_cycle;Signal;HPM_P1;HPM_P2
2023/06/05 00:01:09;;;;;;;7.07;3.37;;;;;;;18.03;78.10;96293.72;6127377;23;20008;-88
2023/06/05 00:03:36;;;;;;;6.00;2.63;;;;;;;17.60;79.42;96293.22;6126867;23;20012;-88
2023/06/05 00:06:03;;;;;;;6.27;3.27;;;;;;;17.31;81.51;96297.88;6124671;23;20066;-88
2023/06/05 00:08:29;;;;;;;5.93;2.83;;;;;;;17.36;83.88;96295.44;6126262;23;20057;-88
2023/06/05 00:10:55;;;;;;;5.30;2.47;;;;;;;17.46;85.25;96299.56;6125869;23;20024;-88
2023/06/05 00:13:20;;;;;;;5.33;2.87;;;;;;;17.42;86.42;96297.28;6131759;23;20012;-88
2023/06/05 00:15:47;;;;;;;5.00;2.83;;;;;;;17.18;89.34;96295.19;6133698;23;20418;-88
2023/06/05 00:18:14;;;;;;;7.20;3.23;;;;;;;17.33;88.22;96298.47;6134474;23;20005;-87
2023/06/05 00:20:40;;;;;;;9.07;3.33;;;;;;;17.20;88.77;96293.97;6135730;23;20310;-88
2023/06/05 00:23:06;;;;;;;6.77;2.83;;;;;;;17.01;90.50;96300.00;6134972;23;20012;-88
2023/06/05 00:25:31;;;;;;;5.03;2.90;;;;;;;16.96;90.53;96302.44;6135541;23;20015;-88
2023/06/05 00:27:57;;;;;;;9.50;2.90;;;;;;;16.96;91.68;96297.13;6135014;23;20029;-88
2023/06/05 00:30:22;;;;;;;6.13;2.97;;;;;;;16.84;92.25;96298.72;6136119;23;20005;-89
2023/06/05 00:32:48;;;;;;;8.33;2.90;;;;;;;16.78;92.64;96299.50;6133876;23;20036;-88
2023/06/05 00:35:14;;;;;;;11.73;2.97;;;;;;;16.85;91.54;96297.69;6125497;23;20005;-88
2023/06/05 00:37:39;;;;;;;6.03;2.77;;;;;;;16.69;92.59;96294.28;6150745;23;20026;-88
2023/06/05 00:40:06;;;;;;;5.23;3.40;;;;;;;16.42;95.84;96295.97;6152129;23;20128;-88
2023/06/05 00:42:32;;;;;;;7.10;3.40;;;;;;;16.42;95.59;96295.97;6125123;23;20068;-88
2023/06/05 00:44:57;;;;;;;6.03;2.93;;;;;;;16.66;95.87;96293.88;6125840;23;20005;-87
2023/06/05 00:47:23;;;;;;;6.93;2.97;;;;;;;16.51;96.27;96294.00;6125937;23;20463;-88
2023/06/05 00:49:49;;;;;;;8.60;3.57;;;;;;;16.52;96.05;96298.28;6126965;23;20457;-88
2023/06/05 00:52:16;;;;;;;5.07;2.60;;;;;;;16.54;96.89;96298.91;6128902;23;20347;-88
2023/06/05 00:54:42;;;;;;;5.93;3.00;;;;;;;16.56;97.73;96294.22;6132896;23;20004;-88
2023/06/05 00:57:09;;;;;;;5.43;2.93;;;;;;;16.47;98.24;96290.91;6128383;23;20015;-88
2023/06/05 00:59:36;;;;;;;7.50;3.27;;;;;;;16.58;97.26;96292.19;6137928;23;20072;-88
2023/06/05 01:02:02;;;;;;;6.77;2.70;;;;;;;16.57;97.39;96292.41;6129353;23;20013;-88
2023/06/05 01:04:32;;;;;;;10.23;2.90;;;;;;;16.28;98.66;96294.25;6133486;23;20392;-88
2023/06/05 01:07:00;;;;;;;7.37;3.27;;;;;;;16.26;98.83;96293.59;6134421;23;20005;-88
2023/06/05 01:09:27;;;;;;;6.63;3.17;;;;;;;15.99;100.00;96290.75;6133623;23;20044;-88
2023/06/05 01:11:52;;;;;;;7.03;3.40;;;;;;;16.06;100.00;96292.63;6135276;23;20441;-88
2023/06/05 01:14:22;;;;;;;5.33;2.83;;;;;;;16.26;100.00;96296.25;6134880;23;20011;-88
2023/06/05 01:16:56;;;;;;;5.43;2.90;;;;;;;16.17;100.00;96287.66;6134710;23;20005;-88
2023/06/05 01:19:28;;;;;;;8.83;3.60;;;;;;;15.96;100.00;96293.81;6133802;23;20005;-88
2023/06/05 01:21:58;;;;;;;5.53;3.13;;;;;;;16.08;100.00;96288.78;6157849;23;20012;-88
2023/06/05 01:24:25;;;;;;;5.47;3.03;;;;;;;16.19;100.00;96287.44;6133437;23;20008;-88
2023/06/05 01:27:10;;;;;;;6.77;3.27;;;;;;;16.20;100.00;96279.31;6133545;23;20434;-88
2023/06/05 01:29:38;;;;;;;7.50;2.93;;;;;;;16.25;100.00;96282.19;6133451;23;20059;-88
2023/06/05 01:32:15;;;;;;;8.00;3.23;;;;;;;16.28;100.00;96283.63;6158552;23;20013;-88
2023/06/05 01:34:43;;;;;;;6.77;3.20;;;;;;;16.35;100.00;96283.69;6132970;23;20013;-88
2023/06/05 01:37:14;;;;;;;5.53;3.07;;;;;;;16.03;100.00;96278.78;6133947;23;20008;-88
2023/06/05 01:39:42;;;;;;;11.33;3.43;;;;;;;16.20;100.00;96276.66;6133771;23;20005;-88
2023/06/05 01:42:10;;;;;;;5.27;2.87;;;;;;;16.06;100.00;96279.38;6134252;23;20005;-88
2023/06/05 01:44:36;;;;;;;7.40;3.50;;;;;;;15.92;100.00;96278.44;6134173;23;20001;-88
2023/06/05 01:47:01;;;;;;;5.90;2.90;;;;;;;15.65;100.00;96282.69;6133865;23;20080;-88
2023/06/05 01:49:27;;;;;;;6.93;3.07;;;;;;;15.64;100.00;96286.34;6158001;23;20001;-88
2023/06/05 01:51:54;;;;;;;7.63;2.90;;;;;;;15.83;100.00;96285.75;6133141;23;20051;-88
2023/06/05 01:54:23;;;;;;;6.90;3.60;;;;;;;15.64;100.00;96283.69;6158874;23;20039;-88
2023/06/05 01:56:49;;;;;;;6.73;3.57;;;;;;;15.76;100.00;96282.19;6135154;23;20005;-88
2023/06/05 01:59:15;;;;;;;8.20;3.17;;;;;;;15.85;100.00;96285.53;6135680;23;20008;-88
2023/06/05 02:01:48;;;;;;;5.90;3.47;;;;;;;15.85;100.00;96283.69;6131753;23;20084;-87
2023/06/05 02:04:18;;;;;;;5.78;2.92;;;;;;;15.77;100.00;96282.00;6127555;23;20040;-88
2023/06/05 02:06:45;;;;;;;6.80;3.20;;;;;;;15.74;100.00;96282.38;6128036;23;20329;-88
2023/06/05 02:09:12;;;;;;;6.60;2.77;;;;;;;15.79;100.00;96280.00;6126893;23;20431;-88
2023/06/05 02:11:39;;;;;;;5.97;3.23;;;;;;;15.70;100.00;96278.50;6127090;23;20013;-88
2023/06/05 02:14:12;;;;;;;5.27;2.70;;;;;;;15.55;100.00;96273.19;6127267;23;20016;-87
2023/06/05 02:16:37;;;;;;;6.72;2.60;;;;;;;15.64;100.00;96279.22;6127011;23;20005;-88
2023/06/05 02:19:03;;;;;;;6.57;3.20;;;;;;;15.45;100.00;96277.19;6125271;23;20008;-88
2023/06/05 02:21:32;;;;;;;5.27;2.90;;;;;;;15.46;100.00;96276.16;6126473;23;20019;-87
2023/06/05 02:24:04;;;;;;;7.30;3.60;;;;;;;15.45;100.00;96271.88;6126220;23;20007;-88
2023/06/05 02:26:31;;;;;;;6.80;3.47;;;;;;;15.49;100.00;96278.44;6125398;23;20017;-87
2023/06/05 02:28:57;;;;;;;5.33;2.80;;;;;;;15.57;100.00;96276.50;6125579;23;20015;-88
2023/06/05 02:31:25;;;;;;;5.50;3.20;;;;;;;15.50;100.00;96278.25;6128693;23;20009;-88
2023/06/05 02:33:52;;;;;;;5.90;3.17;;;;;;;15.35;100.00;96271.38;6155169;23;20017;-87
2023/06/05 02:36:19;;;;;;;9.97;3.63;;;;;;;15.19;100.00;96275.06;6126539;23;20092;-88
2023/06/05 02:38:45;;;;;;;5.20;2.77;;;;;;;15.38;100.00;96277.09;6127724;23;20068;-87
2023/06/05 02:41:11;;;;;;;7.90;2.93;;;;;;;15.47;100.00;96270.69;6127853;23;20008;-88
2023/06/05 02:43:37;;;;;;;5.10;2.67;;;;;;;15.33;100.00;96269.72;6127617;23;20438;-87
2023/06/05 02:46:06;;;;;;;6.30;3.60;;;;;;;15.45;100.00;96277.19;6153294;23;20009;-88
2023/06/05 02:48:31;;;;;;;5.83;2.90;;;;;;;15.38;100.00;96276.28;6129137;23;20008;-88
2023/06/05 02:50:58;;;;;;;7.10;3.10;;;;;;;15.35;100.00;96276.66;6127825;23;20571;-88
2023/06/05 02:53:24;;;;;;;6.53;3.20;;;;;;;15.08;100.00;96276.38;6127582;23;20037;-87
2023/06/05 02:55:49;;;;;;;6.20;2.63;;;;;;;15.02;100.00;96282.41;6129638;23;20224;-87
2023/06/05 02:58:17;;;;;;;8.07;3.63;;;;;;;15.10;100.00;96271.72;6137556;23;20016;-88
2023/06/05 03:00:51;;;;;;;5.90;3.10;;;;;;;14.97;100.00;96279.50;6129610;23;20008;-88
2023/06/05 03:03:20;;;;;;;7.10;3.10;;;;;;;15.04;100.00;96275.09;6135535;23;20015;-88
2023/06/05 03:05:48;;;;;;;9.37;3.10;;;;;;;15.07;100.00;96280.03;6126534;23;20068;-88
2023/06/05 03:08:16;;;;;;;7.60;3.33;;;;;;;15.04;100.00;96275.09;6150494;23;20001;-87
2023/06/05 03:10:44;;;;;;;7.87;3.30;;;;;;;14.59;100.00;96279.66;6126502;23;20005;-88
2023/06/05 03:13:10;;;;;;;6.27;2.90;;;;;;;14.58;100.00;96283.28;6125309;23;20222;-88
2023/06/05 03:15:36;;;;;;;5.57;2.67;;;;;;;14.77;100.00;96279.25;6126911;23;20017;-88
2023/06/05 03:18:04;;;;;;;6.60;2.97;;;;;;;14.78;100.00;96276.41;6127085;23;20128;-87
2023/06/05 03:20:30;;;;;;;5.57;3.00;;;;;;;14.79;100.00;96264.84;6127089;23;20441;-88
2023/06/05 03:22:56;;;;;;;5.70;3.10;;;;;;;14.74;100.00;96280.44;6151363;23;20004;-88
2023/06/05 03:25:23;;;;;;;6.13;2.80;;;;;;;14.78;100.00;96270.31;6127827;23;20005;-88
2023/06/05 03:27:53;;;;;;;9.40;4.10;;;;;;;14.78;100.00;96276.41;6127933;23;20033;-88
2023/06/05 03:30:35;;;;;;;5.77;2.93;;;;;;;14.67;100.00;96270.78;6145985;23;20005;-88
2023/06/05 03:33:02;;;;;;;7.00;3.30;;;;;;;14.76;100.00;96273.16;6148433;23;20000;-88
2023/06/05 03:35:29;;;;;;;7.53;3.40;;;;;;;14.76;100.00;96267.03;6128519;23;20005;-88
2023/06/05 03:38:01;;;;;;;6.67;2.90;;;;;;;14.83;100.00;96273.22;6126721;23;20540;-88
2023/06/05 03:40:27;;;;;;;5.30;2.30;;;;;;;14.79;100.00;96271.97;6151771;23;20019;-88
2023/06/05 03:42:54;;;;;;;7.93;3.20;;;;;;;14.48;100.00;96275.56;6127546;23;20730;-89
2023/06/05 03:45:20;;;;;;;4.80;2.70;;;;;;;14.81;100.00;96270.75;6126940;23;20016;-88
2023/06/05 03:47:48;;;;;;;5.87;3.30;;;;;;;14.83;100.00;96274.06;6127674;23;20009;-88
2023/06/05 03:50:16;;;;;;;12.17;3.47;;;;;;;14.71;100.00;96275.50;6128332;23;20009;-88
2023/06/05 03:52:43;;;;;;;6.10;3.07;;;;;;;14.68;100.00;96270.59;6127707;23;20456;-88
2023/06/05 03:55:09;;;;;;;6.03;3.03;;;;;;;14.61;100.00;96275.78;6130851;23;20033;-88
2023/06/05 03:57:39;;;;;;;6.53;3.33;;;;;;;14.75;100.00;96270.66;6129300;23;20710;-88
2023/06/05 04:00:10;;;;;;;8.17;3.47;;;;;;;14.92;100.00;96271.28;6157607;23;20057;-88
2023/06/05 04:02:38;;;;;;;7.70;3.03;;;;;;;14.92;100.00;96277.41;6180744;23;20013;-88
2023/06/05 04:05:05;;;;;;;9.17;3.80;;;;;;;15.11;100.00;96270.72;6156567;23;19989;-88
2023/06/05 04:07:33;;;;;;;6.47;3.33;;;;;;;15.11;100.00;96268.06;6139610;23;20047;-88
2023/06/05 04:09:59;;;;;;;8.77;2.80;;;;;;;15.31;100.00;96273.56;6134600;23;20076;-88
2023/06/05 04:12:24;;;;;;;5.80;3.23;;;;;;;15.02;100.00;96279.75;6161966;23;20007;-87
2023/06/05 04:14:50;;;;;;;7.53;3.63;;;;;;;15.25;100.00;96279.63;6134821;23;20020;-87
2023/06/05 04:17:16;;;;;;;11.93;3.63;;;;;;;15.43;100.00;96269.44;6134081;23;20103;-88
2023/06/05 04:19:41;;;;;;;6.70;3.20;;;;;;;15.27;100.00;96275.78;6133908;23;20005;-88
2023/06/05 04:22:08;;;;;;;6.03;3.20;;;;;;;15.39;100.00;96277.94;6134839;23;20013;-88
2023/06/05 04:24:40;;;;;;;5.77;2.93;;;;;;;15.55;100.00;96283.81;6134901;23;20055;-88
2023/06/05 04:27:10;;;;;;;6.13;3.23;;;;;;;15.67;100.00;96281.50;6134525;23;20683;-88
2023/06/05 04:29:35;;;;;;;7.03;3.07;;;;;;;15.54;100.00;96279.53;6134980;23;20005;-88
2023/06/05 04:32:01;;;;;;;5.83;2.67;;;;;;;15.68;100.00;96277.84;6134310;23;20013;-88
2023/06/05 04:34:26;;;;;;;6.27;3.07;;;;;;;15.73;100.00;96280.75;6133820;23;20441;-88
2023/06/05 04:36:52;;;;;;;6.13;2.93;;;;;;;15.88;100.00;96277.19;6134403;23;20017;-88
2023/06/05 04:39:19;;;;;;;5.97;2.70;;;;;;;15.92;100.00;96276.63;6134328;23;20086;-88
2023/06/05 04:41:46;;;;;;;5.47;2.77;;;;;;;15.95;100.00;96270.94;6131846;23;20001;-88
2023/06/05 04:44:16;;;;;;;5.23;2.60;;;;;;;15.90;100.00;96275.19;6150445;23;20036;-88
2023/06/05 04:46:43;;;;;;;9.40;2.40;;;;;;;15.84;100.00;96273.31;6126933;23;20017;-88
2023/06/05 04:49:11;;;;;;;7.00;2.77;;;;;;;16.19;100.00;96272.34;6122552;23;20001;-89
2023/06/05 04:51:37;;;;;;;7.43;3.03;;;;;;;16.25;100.00;96271.56;6122551;23;20870;-90
2023/06/05 04:54:05;;;;;;;5.77;3.03;;;;;;;16.34;100.00;96277.56;6124018;23;20011;-90
2023/06/05 04:56:34;;;;;;;5.77;2.77;;;;;;;16.29;100.00;96273.84;6126919;23;20448;-89
2023/06/05 04:59:04;;;;;;;6.20;2.80;;;;;;;16.44;100.00;96271.91;6129599;23;20001;-89
2023/06/05 05:01:31;;;;;;;8.13;3.00;;;;;;;16.27;100.00;96282.00;6125509;23;20052;-89
2023/06/05 05:03:57;;;;;;;6.07;2.67;;;;;;;16.43;100.00;96275.56;6135180;23;20036;-90
2023/06/05 05:06:24;;;;;;;7.30;2.97;;;;;;;16.47;100.00;96271.53;6121886;23;20012;-90
2023/06/05 05:08:55;;;;;;;5.93;3.10;;;;;;;16.62;99.25;96274.03;6123323;23;20028;-92
2023/06/05 05:11:20;;;;;;;6.50;3.07;;;;;;;16.65;100.00;96271.81;6126425;23;20020;-87
2023/06/05 05:13:47;;;;;;;10.20;5.07;;;;;;;16.38;100.00;96273.50;6126265;23;20008;-87
2023/06/05 05:16:14;;;;;;;8.80;3.60;;;;;;;16.86;99.76;96275.41;6150038;23;20462;-85
2023/06/05 05:18:43;;;;;;;5.73;2.90;;;;;;;16.84;99.71;96282.78;6129383;23;20017;-84
2023/06/05 05:21:13;;;;;;;6.57;2.70;;;;;;;17.04;98.34;96280.22;6129220;23;20690;-84
2023/06/05 05:23:40;;;;;;;5.27;2.83;;;;;;;17.22;96.75;96274.34;6164183;23;20020;-84
2023/06/05 05:26:39;;;;;;;18.47;4.87;;;;;;;17.88;95.26;96279.81;6130814;23;20051;-87
2023/06/05 05:30:02;;;;;;;12.40;3.63;;;;;;;18.33;92.57;96282.66;6171606;23;20075;-87
2023/06/05 05:33:15;;;;;;;6.37;2.93;;;;;;;18.74;86.94;96284.25;6146048;23;20013;-87
2023/06/05 05:44:55;;;;;;;5.20;2.80;;;;;;;19.12;78.77;96288.84;6067635;23;20093;-87
2023/06/05 05:47:30;;;;;;;7.60;2.60;;;;;;;19.45;78.77;96294.00;6056410;23;20451;-88
2023/06/05 05:50:28;;;;;;;;;;;;;;;19.55;76.68;96297.88;6137533;23;20016;-87
2023/06/05 05:53:41;;;;;;;73.30;11.87;;;;;;;20.04;78.40;96284.03;6137664;23;20003;-87
2023/06/05 05:56:29;;;;;;;6.20;2.87;;;;;;;20.06;74.50;96287.31;6149832;23;20005;-83
2023/06/05 05:58:55;;;;;;;44.67;6.57;;;;;;;20.18;74.46;96289.03;6140725;23;20043;-82
2023/06/05 06:01:21;;;;;;;7.43;2.87;;;;;;;20.40;71.09;96291.31;6127221;23;20005;-83
2023/06/05 06:03:47;;;;;;;55.20;12.97;;;;;;;20.67;69.21;96291.91;6129022;23;20110;-83
2023/06/05 06:06:13;;;;;;;6.87;3.70;;;;;;;20.58;70.92;96294.03;6127127;23;20005;-82
2023/06/05 06:08:38;;;;;;;63.55;12.18;;;;;;;21.13;67.81;96280.69;6126631;23;20475;-82
2023/06/05 06:11:06;;;;;;;5.77;2.50;;;;;;;20.83;68.64;96288.66;6127341;23;20012;-83
2023/06/05 06:13:33;;;;;;;10.93;3.38;;;;;;;20.93;69.29;96283.59;6127595;23;20013;-82
2023/06/05 06:15:59;;;;;;;8.57;2.83;;;;;;;20.80;63.54;96280.25;6126357;23;20368;-82
2023/06/05 06:18:34;;;;;;;9.25;2.83;;;;;;;21.41;62.84;96280.16;6151121;23;20028;-83
2023/06/05 06:21:08;;;;;;;4.90;2.30;;;;;;;21.38;61.84;96280.59;6125853;23;20005;-82
2023/06/05 06:23:38;;;;;;;5.72;3.13;;;;;;;21.40;62.33;96286.56;6126188;23;20013;-82
2023/06/05 06:26:06;;;;;;;15.15;4.35;;;;;;;21.17;66.54;96275.72;6125552;23;20013;-83
2023/06/05 06:28:33;;;;;;;5.88;2.50;;;;;;;20.51;68.70;96285.28;6126671;23;20337;-83
2023/06/05 06:30:59;;;;;;;6.32;2.58;;;;;;;20.36;67.76;96293.63;6132883;23;20312;-83
2023/06/05 06:33:24;;;;;;;15.70;2.83;;;;;;;20.71;66.20;96290.41;6157776;23;20059;-83
2023/06/05 06:35:50;;;;;;;11.18;4.13;;;;;;;21.84;59.34;96291.72;6132856;23;20001;-83
2023/06/05 06:38:16;;;;;;;26.95;3.65;;;;;;;22.96;55.15;96294.38;6133381;23;20012;-83
2023/06/05 06:40:42;;;;;;;19.85;3.53;;;;;;;23.58;52.61;96293.75;6133123;23;20005;-80
2023/06/05 06:43:28;;;;;;;9.50;3.28;;;;;;;23.74;51.07;96293.00;6133655;23;20075;-81
2023/06/05 06:46:01;;;;;;;11.43;4.43;;;;;;;24.81;47.86;96288.53;6137870;23;20031;-83
2023/06/05 06:48:27;;;;;;;9.18;3.88;;;;;;;25.36;44.94;96281.47;6133396;23;20001;-82
2023/06/05 06:50:53;;;;;;;8.18;2.85;;;;;;;24.59;47.41;96293.06;6158945;23;20001;-83
2023/06/05 06:53:22;;;;;;;12.30;3.17;;;;;;;24.18;46.62;96293.22;6133898;23;20005;-83
2023/06/05 06:55:48;;;;;;;7.30;2.83;;;;;;;23.92;46.96;96304.59;6131920;23;20013;-83
2023/06/05 06:58:15;;;;;;;5.53;2.30;;;;;;;24.84;47.02;96295.28;6126269;23;20012;-83
2023/06/05 07:00:41;;;;;;;6.00;3.38;;;;;;;24.74;45.64;96292.47;6103866;23;20035;-83
2023/06/05 07:03:08;;;;;;;6.82;2.67;;;;;;;24.86;46.09;96291.31;6126841;23;20012;-83
2023/06/05 07:05:36;;;;;;;6.10;2.60;;;;;;;25.10;44.99;96294.56;6127708;23;20009;-83
2023/06/05 07:08:16;;;;;;;9.00;3.42;;;;;;;25.44;42.58;96294.47;6151451;23;20007;-83
2023/06/05 07:15:19;;;;;;;7.53;2.97;;;;;;;25.79;40.96;96285.16;6082690;23;20073;-87
2023/06/05 07:18:22;;;;;;;9.90;2.40;;;;;;;25.38;43.00;96285.50;6001251;23;20086;-87
2023/06/05 07:21:41;;;;;;;5.68;2.75;;;;;;;26.36;41.87;96276.53;5980591;23;20438;-88
2023/06/05 07:25:37;;;;;;;7.88;3.13;;;;;;;27.62;39.02;96273.94;5998491;23;20059;-88
2023/06/05 07:28:11;;;;;;;92.00;9.82;;;;;;;26.24;40.74;96279.38;6008261;23;20356;-84
2023/06/05 07:43:12;;;;;;;6.85;3.03;;;;;;;26.95;39.25;96275.56;5899716;24;20404;-87
2023/06/05 07:45:39;;;;;;;7.00;3.65;;;;;;;27.51;40.27;96270.41;5860170;24;20002;-81
2023/06/05 07:48:05;;;;;;;61.33;7.80;;;;;;;28.30;38.05;96266.47;5918487;23;20031;-78
2023/06/05 07:50:30;;;;;;;30.10;5.20;;;;;;;28.11;37.89;96265.41;6042441;23;20446;-76
2023/06/05 07:52:56;;;;;;;10.20;4.07;;;;;;;28.55;38.43;96264.88;6143107;23;20009;-79
2023/06/05 07:55:21;;;;;;;6.30;3.58;;;;;;;27.90;39.29;96265.38;6163231;23;20330;-79
2023/06/05 07:57:48;;;;;;;9.70;3.70;;;;;;;28.86;37.73;96261.00;6187295;23;20429;-78
2023/06/05 08:00:14;;;;;;;7.70;3.47;;;;;;;28.84;38.04;96265.88;6214561;23;20005;-78
2023/06/05 08:02:40;;;;;;;9.68;3.78;;;;;;;28.67;36.90;96257.25;6187781;23;20054;-79
2023/06/05 08:05:16;;;;;;;9.02;3.58;;;;;;;28.58;37.94;96262.41;6187131;23;20004;-82
2023/06/05 08:07:42;;;;;;;5.80;2.92;;;;;;;27.67;39.92;96271.25;6212642;23;20075;-78
2023/06/05 08:10:08;;;;;;;13.70;4.22;;;;;;;29.48;37.92;96255.38;6183442;23;20040;-79
2023/06/05 08:12:36;;;;;;;9.13;3.75;;;;;;;28.05;39.87;96261.06;6186332;23;20012;-79
2023/06/05 08:15:01;;;;;;;9.93;3.08;;;;;;;27.50;41.63;96264.19;6161565;23;20004;-79
2023/06/05 08:17:32;;;;;;;9.27;3.67;;;;;;;29.44;37.17;96251.59;6185582;23;20385;-79
2023/06/05 08:19:58;;;;;;;7.32;3.25;;;;;;;29.07;37.31;96256.34;6161118;23;20005;-79
2023/06/05 08:22:23;;;;;;;7.53;3.83;;;;;;;28.00;39.43;96263.75;6186653;23;20004;-79
2023/06/05 08:24:50;;;;;;;10.68;3.60;;;;;;;28.00;39.20;96263.75;6186354;23;20061;-79
2023/06/05 08:27:27;;;;;;;7.45;3.60;;;;;;;29.78;36.44;96252.50;6187003;23;20004;-79
2023/06/05 08:29:52;;;;;;;8.45;3.38;;;;;;;27.79;40.19;96257.53;6186178;23;20000;-78
2023/06/05 08:32:21;;;;;;;6.68;3.78;;;;;;;27.49;40.12;96262.56;6161570;23;20019;-79
2023/06/05 08:34:46;;;;;;;10.73;4.55;;;;;;;29.37;38.10;96260.81;6161023;23;20464;-78
2023/06/05 08:37:12;;;;;;;5.45;3.30;;;;;;;28.72;38.93;96259.16;6186419;23;20000;-79
2023/06/05 08:39:38;;;;;;;6.05;3.58;;;;;;;27.91;41.02;96263.50;6161806;23;20007;-79
2023/06/05 08:42:05;;;;;;;9.50;3.67;;;;;;;28.57;39.41;96268.91;6161771;23;20449;-79
2023/06/05 08:44:32;;;;;;;13.20;3.78;;;;;;;28.82;38.74;96256.41;6186351;23;20694;-79
2023/06/05 08:47:03;;;;;;;20.52;10.60;;;;;;;29.91;36.72;96259.19;6186505;23;20012;-79
2023/06/05 08:49:29;;;;;;;9.13;4.10;;;;;;;30.29;34.63;96248.63;6212134;23;20016;-79
2023/06/05 08:52:07;;;;;;;14.07;4.07;;;;;;;30.26;34.74;96247.28;6186139;23;20039;-79
2023/06/05 08:54:40;;;;;;;22.55;8.15;;;;;;;30.55;35.24;96241.06;6161224;23;20750;-79
2023/06/05 08:57:07;;;;;;;19.08;8.23;;;;;;;29.72;36.38;96256.34;6160792;23;20445;-79
2023/06/05 08:59:33;;;;;;;5.45;3.60;;;;;;;29.50;37.71;96250.47;6186787;23;20001;-79
2023/06/05 09:02:00;;;;;;;5.60;3.38;;;;;;;29.50;36.54;96258.59;6161959;23;20000;-79
2023/06/05 09:04:30;;;;;;;8.85;3.60;;;;;;;29.70;36.95;96253.09;6160110;23;20016;-78
2023/06/05 09:06:59;;;;;;;8.02;4.03;;;;;;;29.23;36.92;96257.09;6159570;23;20008;-79
2023/06/05 09:09:25;;;;;;;15.68;9.48;;;;;;;31.20;34.70;96248.78;6156582;23;20440;-78
2023/06/05 09:12:08;;;;;;;6.15;3.78;;;;;;;30.89;34.94;96245.63;6153741;23;20017;-78
2023/06/05 09:14:34;;;;;;;;;;;;;;;29.86;35.66;96242.16;6180037;23;20466;-79
2023/06/05 09:17:01;;;;;;;10.10;3.28;;;;;;;29.85;36.20;96241.34;6179796;23;19950;-79
2023/06/05 09:19:37;;;;;;;8.77;3.60;;;;;;;31.39;33.05;96243.41;6155225;23;20772;-79
2023/06/05 09:22:05;;;;;;;5.90;3.53;;;;;;;30.75;31.41;96246.28;6159904;23;20326;-78
2023/06/05 09:24:31;;;;;;;15.27;4.20;;;;;;;30.69;32.82;96246.63;6160475;23;20055;-79
2023/06/05 09:27:16;;;;;;;6.35;3.13;;;;;;;29.83;32.31;96247.03;6159953;23;20575;-79
2023/06/05 09:29:43;;;;;;;11.90;5.22;;;;;;;31.38;31.26;96231.72;6159112;23;20055;-79
2023/06/05 09:32:20;;;;;;;7.55;4.05;;;;;;;31.10;31.85;96244.28;6185849;23;20020;-79
2023/06/05 09:34:59;;;;;;;9.52;3.92;;;;;;;31.97;31.47;96236.91;6158695;23;20385;-79
2023/06/05 09:37:36;;;;;;;6.30;2.97;;;;;;;30.08;32.21;96234.41;6210988;23;20005;-80
2023/06/05 09:40:03;;;;;;;5.47;3.20;;;;;;;30.58;31.16;96232.31;6160250;23;20000;-79
2023/06/05 09:42:33;;;;;;;8.27;3.78;;;;;;;31.12;30.76;96233.94;6186075;23;20011;-79
2023/06/05 09:45:01;;;;;;;6.45;3.63;;;;;;;30.95;30.79;96233.59;6161407;23;20011;-77
2023/06/05 09:47:27;;;;;;;5.85;3.80;;;;;;;31.23;29.63;96238.13;6185260;23;20723;-77
2023/06/05 09:49:53;;;;;;;7.47;3.75;;;;;;;30.81;29.51;96232.66;6161833;23;20000;-77
2023/06/05 09:52:20;;;;;;;7.18;3.15;;;;;;;30.79;30.70;96234.88;6186124;23;20004;-75
2023/06/05 09:54:46;;;;;;;5.97;3.38;;;;;;;31.07;30.28;96234.00;6160166;23;20009;-75
2023/06/05 09:57:14;;;;;;;6.13;3.60;;;;;;;30.16;31.74;96231.06;6158802;23;20009;-75
2023/06/05 09:59:45;;;;;;;6.88;3.65;;;;;;;30.05;30.04;96229.53;6151990;23;20005;-79
2023/06/05 10:02:16;;;;;;;7.47;3.75;;;;;;;28.48;32.26;96237.28;6176789;23;20751;-77
2023/06/05 10:04:47;;;;;;;5.93;3.63;;;;;;;27.89;32.92;96239.41;6150226;23;20043;-77
2023/06/05 10:07:23;;;;;;;5.53;3.30;;;;;;;28.90;31.90;96229.56;6202467;23;20001;-86
2023/06/05 10:09:50;;;;;;;8.23;3.33;;;;;;;28.89;31.84;96227.97;6180390;23;20015;-77
2023/06/05 10:12:16;;;;;;;7.45;3.67;;;;;;;29.98;31.11;96223.59;6179733;23;20075;-80
2023/06/05 10:14:43;;;;;;;6.88;4.18;;;;;;;31.24;30.16;96219.94;6180148;23;20656;-77
2023/06/05 10:17:11;;;;;;;6.65;3.10;;;;;;;32.05;29.96;96217.97;6208473;23;20031;-83
2023/06/05 10:19:41;;;;;;;7.82;3.08;;;;;;;32.72;29.06;96214.13;6183479;23;20440;-80
2023/06/05 10:22:07;;;;;;;6.32;3.30;;;;;;;33.16;28.50;96215.44;6158344;23;20096;-82
2023/06/05 10:24:38;;;;;;;7.32;3.92;;;;;;;33.19;28.47;96212.13;6157284;23;20345;-85
2023/06/05 10:27:09;;;;;;;7.30;3.50;;;;;;;32.57;28.16;96213.31;6157865;23;20585;-85
2023/06/05 10:30:03;;;;;;;5.97;3.13;;;;;;;31.49;28.92;96221.53;6178536;23;20336;-79
2023/06/05 10:32:47;;;;;;;6.82;3.60;;;;;;;32.95;27.36;96207.66;6155328;23;20005;-80
2023/06/05 10:35:35;;;;;;;15.13;12.18;;;;;;;33.65;26.73;96205.69;6153058;23;20436;-80
2023/06/05 10:38:19;;;;;;;18.95;13.13;;;;;;;34.83;26.11;96209.03;6152809;23;20126;-84
2023/06/05 10:40:55;;;;;;;10.32;5.80;;;;;;;34.50;25.19;96201.94;6154989;23;20773;-80
2023/06/05 10:43:29;;;;;;;143.70;15.93;;;;;;;34.49;26.62;96205.81;6201128;23;20106;-76
2023/06/05 10:45:57;;;;;;;12.48;4.82;;;;;;;34.24;25.98;96201.03;6178174;23;20000;-81
2023/06/05 10:49:00;;;;;;;9.63;4.60;;;;;;;33.42;27.58;96205.63;6153786;23;20054;-81
2023/06/05 10:51:40;;;;;;;5.95;3.90;;;;;;;33.71;26.30;96197.09;6176799;23;20818;-81
2023/06/05 10:54:08;;;;;;;5.93;3.80;;;;;;;32.32;27.20;96208.28;6175709;23;20793;-81
2023/06/05 10:57:02;;;;;;;7.75;3.95;;;;;;;33.43;26.32;96199.03;6151264;23;20004;-81
2023/06/05 10:59:32;;;;;;;8.75;4.00;;;;;;;32.07;27.63;96204.09;6158329;23;20040;-81
2023/06/05 11:02:16;;;;;;;7.53;3.85;;;;;;;31.36;27.50;96195.88;6205538;23;20001;-77
2023/06/05 11:04:46;;;;;;;5.88;3.92;;;;;;;32.33;27.37;96185.41;6181354;23;20004;-81
2023/06/05 11:07:21;;;;;;;8.10;3.95;;;;;;;33.16;27.16;96188.19;6178699;23;20008;-79
2023/06/05 11:10:05;;;;;;;6.15;3.42;;;;;;;31.67;26.68;96201.69;6179862;23;20691;-79
2023/06/05 11:12:46;;;;;;;6.38;3.50;;;;;;;33.00;25.90;96194.00;6179309;23;20022;-81
2023/06/05 11:15:12;;;;;;;15.55;4.35;;;;;;;33.04;28.13;96186.00;6154374;23;20008;-80
2023/06/05 11:17:40;;;;;;;13.95;4.35;;;;;;;31.19;27.76;96203.72;6179398;23;20058;-81
2023/06/05 11:20:24;;;;;;;8.05;3.90;;;;;;;31.02;28.73;96196.03;6207124;23;20008;-81
2023/06/05 11:22:53;;;;;;;18.23;4.25;;;;;;;31.15;28.73;96198.03;6206550;23;20001;-81
2023/06/05 11:25:21;;;;;;;5.57;3.50;;;;;;;32.24;27.13;96179.03;6181507;23;20011;-81
2023/06/05 11:27:54;;;;;;;10.90;4.05;;;;;;;30.11;29.52;96193.13;6155969;23;20020;-81
2023/06/05 11:30:26;;;;;;;18.10;4.85;;;;;;;29.49;30.46;96194.66;6205640;23;20005;-81
2023/06/05 11:32:54;;;;;;;9.77;4.47;;;;;;;30.83;29.39;96189.75;6154497;23;20005;-82
2023/06/05 11:35:25;;;;;;;8.50;4.10;;;;;;;30.80;28.54;96187.63;6181815;23;20095;-82
2023/06/05 11:38:18;;;;;;;12.50;6.30;;;;;;;32.55;26.23;96166.50;6187309;23;20005;-81
2023/06/05 11:40:45;;;;;;;12.18;5.55;;;;;;;32.82;26.54;96171.16;6162358;23;20009;-81
2023/06/05 11:43:12;;;;;;;9.25;6.05;;;;;;;31.91;27.01;96174.41;6161731;23;20252;-81
2023/06/05 11:45:40;;;;;;;6.40;3.83;;;;;;;32.33;25.98;96169.91;6186239;23;20079;-81
2023/06/05 11:48:11;;;;;;;21.90;5.15;;;;;;;33.17;26.97;96159.84;6187231;23;20572;-81
2023/06/05 11:50:38;;;;;;;17.67;4.55;;;;;;;33.51;25.63;96165.66;6209331;23;20015;-81
2023/06/05 11:53:09;;;;;;;9.23;4.97;;;;;;;33.16;25.07;96163.69;6179259;23;20011;-83
2023/06/05 11:55:54;;;;;;;6.88;4.10;;;;;;;32.73;25.89;96167.53;6181277;23;20036;-86
2023/06/05 11:58:30;;;;;;;7.25;4.22;;;;;;;34.76;24.69;96165.00;6157996;23;20032;-84
2023/06/05 12:01:31;;;;;;;10.10;4.15;;;;;;;34.14;24.47;96165.78;6179381;23;20785;-79
2023/06/05 12:04:10;;;;;;;6.35;3.60;;;;;;;33.16;24.45;96167.19;6155777;23;20009;-79
2023/06/05 12:06:47;;;;;;;6.45;3.67;;;;;;;31.92;26.55;96173.28;6176594;23;20873;-79
2023/06/05 12:09:15;;;;;;;9.63;4.65;;;;;;;31.58;27.12;96172.75;6202200;23;20080;-78
2023/06/05 12:11:43;;;;;;;7.65;3.88;;;;;;;33.04;25.13;96162.28;6175311;23;20012;-79